sensor_id;sensor_type;location;lat;lon;timestamp;pressure;altitude;pressure_sealevel;temperature;humidity
74631;BME280;63138;55.082;38.804;2022-11-20T00:01:30;99867.19;;;-3.07;94.01
74631;BME280;63138;55.082;38.804;2022-11-20T00:03:57;99876.69;;;-3.03;94.13
74631;BME280;63138;55.082;38.804;2022-11-20T00:06:25;99869.75;;;-3.05;94.21
74631;BME280;63138;55.082;38.804;2022-11-20T00:08:53;99876.78;;;-3.04;94.09
74631;BME280;63138;55.082;38.804;2022-11-20T00:11:21;99877.56;;;-3.02;94.30
74631;BME280;63138;55.082;38.804;2022-11-20T00:13:50;99875.94;;;-3.05;94.33
74631;BME280;63138;55.082;38.804;2022-11-20T00:16:18;99878.41;;;-3.02;93.95
74631;BME280;63138;55.082;38.804;2022-11-20T00:18:45;99877.56;;;-3.02;94.02
74631;BME280;63138;55.082;38.804;2022-11-20T00:21:13;99877.56;;;-3.02;94.12
74631;BME280;63138;55.082;38.804;2022-11-20T00:23:39;99871.44;;;-3.04;94.46
74631;BME280;63138;55.082;38.804;2022-11-20T00:26:07;99852.50;;;-2.98;93.96
74631;BME280;63138;55.082;38.804;2022-11-20T00:28:34;99870.25;;;-2.99;93.84
74631;BME280;63138;55.082;38.804;2022-11-20T00:31:05;99878.22;;;-2.99;93.69
74631;BME280;63138;55.082;38.804;2022-11-20T00:33:31;99881.91;;;-3.01;94.07
74631;BME280;63138;55.082;38.804;2022-11-20T00:36:12;99882.66;;;-2.99;94.05
74631;BME280;63138;55.082;38.804;2022-11-20T00:38:38;99886.09;;;-2.97;94.27
74631;BME280;63138;55.082;38.804;2022-11-20T00:41:07;99876.41;;;-2.98;94.01
74631;BME280;63138;55.082;38.804;2022-11-20T00:43:34;99872.25;;;-3.02;94.29
74631;BME280;63138;55.082;38.804;2022-11-20T00:46:07;99878.22;;;-2.99;93.96
74631;BME280;63138;55.082;38.804;2022-11-20T00:48:33;99882.66;;;-2.99;94.40
74631;BME280;63138;55.082;38.804;2022-11-20T00:51:00;99867.78;;;-3.02;94.40
74631;BME280;63138;55.082;38.804;2022-11-20T00:53:26;99872.03;;;-2.99;93.77
74631;BME280;63138;55.082;38.804;2022-11-20T00:55:59;99873.09;;;-3.02;94.34
74631;BME280;63138;55.082;38.804;2022-11-20T00:58:35;99893.22;;;-2.98;94.04
74631;BME280;63138;55.082;38.804;2022-11-20T01:03:35;99878.91;;;-2.95;94.32
74631;BME280;63138;55.082;38.804;2022-11-20T01:06:06;99892.44;;;-3.00;93.67
74631;BME280;63138;55.082;38.804;2022-11-20T01:08:34;99879.25;;;-3.01;93.89
74631;BME280;63138;55.082;38.804;2022-11-20T01:11:02;99889.78;;;-3.00;93.74
74631;BME280;63138;55.082;38.804;2022-11-20T01:13:30;99891.41;;;-2.97;94.06
74631;BME280;63138;55.082;38.804;2022-11-20T01:16:37;99877.44;;;-3.01;93.76
74631;BME280;63138;55.082;38.804;2022-11-20T01:19:05;99875.16;;;-3.07;94.41
74631;BME280;63138;55.082;38.804;2022-11-20T01:21:37;99886.28;;;-3.00;94.23
74631;BME280;63138;55.082;38.804;2022-11-20T01:24:05;99895.03;;;-2.98;93.98
74631;BME280;63138;55.082;38.804;2022-11-20T01:26:35;99890.63;;;-2.99;94.50
74631;BME280;63138;55.082;38.804;2022-11-20T01:29:04;99895.09;;;-3.00;94.48
74631;BME280;63138;55.082;38.804;2022-11-20T01:31:35;99890.63;;;-2.99;93.78
74631;BME280;63138;55.082;38.804;2022-11-20T01:34:06;99895.88;;;-2.98;94.40
74631;BME280;63138;55.082;38.804;2022-11-20T01:36:36;99896.91;;;-3.00;93.73
74631;BME280;63138;55.082;38.804;2022-11-20T01:39:05;99900.50;;;-3.01;93.65
74631;BME280;63138;55.082;38.804;2022-11-20T01:41:33;99895.03;;;-2.98;93.73
74631;BME280;63138;55.082;38.804;2022-11-20T01:44:20;99896.91;;;-3.00;93.64
74631;BME280;63138;55.082;38.804;2022-11-20T01:46:57;99903.00;;;-2.98;94.06
74631;BME280;63138;55.082;38.804;2022-11-20T01:49:38;99893.28;;;-2.99;93.74
74631;BME280;63138;55.082;38.804;2022-11-20T01:52:20;99888.19;;;-3.02;94.08
74631;BME280;63138;55.082;38.804;2022-11-20T01:55:18;99899.56;;;-3.00;93.66
74631;BME280;63138;55.082;38.804;2022-11-20T01:57:45;99903.91;;;-2.99;94.06
74631;BME280;63138;55.082;38.804;2022-11-20T02:00:15;99910.13;;;-2.99;93.76
74631;BME280;63138;55.082;38.804;2022-11-20T02:02:48;99916.28;;;-2.98;93.82
74631;BME280;63138;55.082;38.804;2022-11-20T02:07:47;99919.88;;;-2.99;93.77
74631;BME280;63138;55.082;38.804;2022-11-20T02:10:14;99923.19;;;-2.96;93.88
74631;BME280;63138;55.082;38.804;2022-11-20T02:12:40;99921.41;;;-2.95;93.67
74631;BME280;63138;55.082;38.804;2022-11-20T02:15:44;99919.69;;;-2.96;93.88
74631;BME280;63138;55.082;38.804;2022-11-20T02:18:11;99922.25;;;-2.95;93.93
74631;BME280;63138;55.082;38.804;2022-11-20T02:20:42;99920.53;;;-2.96;93.63
74631;BME280;63138;55.082;38.804;2022-11-20T02:23:13;99931.16;;;-2.96;93.42
74631;BME280;63138;55.082;38.804;2022-11-20T02:25:42;99931.47;;;-3.00;93.61
74631;BME280;63138;55.082;38.804;2022-11-20T02:28:09;99938.47;;;-2.99;93.78
74631;BME280;63138;55.082;38.804;2022-11-20T02:30:35;99932.41;;;-3.01;93.63
74631;BME280;63138;55.082;38.804;2022-11-20T02:33:01;99942.84;;;-2.98;93.81
74631;BME280;63138;55.082;38.804;2022-11-20T02:37:54;99945.34;;;-2.95;94.19
74631;BME280;63138;55.082;38.804;2022-11-20T02:40:21;99939.44;;;-3.00;93.99
74631;BME280;63138;55.082;38.804;2022-11-20T02:42:47;99951.59;;;-2.96;93.48
74631;BME280;63138;55.082;38.804;2022-11-20T02:45:13;99942.69;;;-2.95;93.35
74631;BME280;63138;55.082;38.804;2022-11-20T02:47:39;99954.06;;;-2.93;93.61
74631;BME280;63138;55.082;38.804;2022-11-20T02:50:05;99955.84;;;-2.94;93.70
74631;BME280;63138;55.082;38.804;2022-11-20T02:52:31;99947.88;;;-2.94;93.74
74631;BME280;63138;55.082;38.804;2022-11-20T02:54:57;99947.78;;;-2.92;93.41
74631;BME280;63138;55.082;38.804;2022-11-20T02:57:23;99947.50;;;-3.02;93.51
74631;BME280;63138;55.082;38.804;2022-11-20T02:59:48;99950.81;;;-2.98;93.60
74631;BME280;63138;55.082;38.804;2022-11-20T03:02:14;99958.63;;;-2.95;93.52
74631;BME280;63138;55.082;38.804;2022-11-20T03:04:40;99946.25;;;-2.96;93.21
74631;BME280;63138;55.082;38.804;2022-11-20T03:07:07;99950.81;;;-2.98;93.08
74631;BME280;63138;55.082;38.804;2022-11-20T03:09:33;99950.91;;;-3.00;93.45
74631;BME280;63138;55.082;38.804;2022-11-20T03:11:59;99950.91;;;-3.00;93.35
74631;BME280;63138;55.082;38.804;2022-11-20T03:14:27;99948.25;;;-3.00;93.06
74631;BME280;63138;55.082;38.804;2022-11-20T03:16:53;99954.63;;;-3.02;93.43
74631;BME280;63138;55.082;38.804;2022-11-20T03:19:19;99957.28;;;-3.02;93.26
74631;BME280;63138;55.082;38.804;2022-11-20T03:21:44;99962.59;;;-3.02;93.20
74631;BME280;63138;55.082;38.804;2022-11-20T03:24:10;99965.25;;;-3.02;93.31
74631;BME280;63138;55.082;38.804;2022-11-20T03:26:36;99971.41;;;-3.02;93.29
74631;BME280;63138;55.082;38.804;2022-11-20T03:29:03;99971.41;;;-3.02;93.47
74631;BME280;63138;55.082;38.804;2022-11-20T03:31:40;99977.72;;;-3.04;93.30
74631;BME280;63138;55.082;38.804;2022-11-20T03:34:07;99970.72;;;-3.05;93.62
74631;BME280;63138;55.082;38.804;2022-11-20T03:36:37;99979.47;;;-3.03;93.34
74631;BME280;63138;55.082;38.804;2022-11-20T03:39:03;99978.53;;;-3.02;93.51
74631;BME280;63138;55.082;38.804;2022-11-20T03:41:30;99980.38;;;-3.04;93.14
74631;BME280;63138;55.082;38.804;2022-11-20T03:44:00;99988.28;;;-3.03;93.27
74631;BME280;63138;55.082;38.804;2022-11-20T03:46:27;99982.13;;;-3.03;93.19
74631;BME280;63138;55.082;38.804;2022-11-20T03:48:53;99985.69;;;-3.04;92.87
74631;BME280;63138;55.082;38.804;2022-11-20T03:51:24;99989.31;;;-3.05;93.36
74631;BME280;63138;55.082;38.804;2022-11-20T03:53:51;99989.50;;;-3.09;92.91
74631;BME280;63138;55.082;38.804;2022-11-20T03:56:19;99985.69;;;-3.04;92.86
74631;BME280;63138;55.082;38.804;2022-11-20T03:58:45;99983.94;;;-3.04;93.00
74631;BME280;63138;55.082;38.804;2022-11-20T04:01:14;100000.03;;;-3.07;92.91
74631;BME280;63138;55.082;38.804;2022-11-20T04:03:41;99997.28;;;-3.05;92.96
74631;BME280;63138;55.082;38.804;2022-11-20T04:06:09;99996.25;;;-3.03;92.68
74631;BME280;63138;55.082;38.804;2022-11-20T04:08:36;99994.34;;;-3.01;92.94
74631;BME280;63138;55.082;38.804;2022-11-20T04:11:19;99993.13;;;-3.10;92.26
74631;BME280;63138;55.082;38.804;2022-11-20T04:13:47;99993.78;;;-3.06;92.47
74631;BME280;63138;55.082;38.804;2022-11-20T04:16:13;99998.13;;;-3.05;92.75
74631;BME280;63138;55.082;38.804;2022-11-20T04:18:39;99986.66;;;-3.05;92.38
74631;BME280;63138;55.082;38.804;2022-11-20T04:21:06;99997.47;;;-3.09;92.02
74631;BME280;63138;55.082;38.804;2022-11-20T04:23:32;100000.97;;;-3.08;92.49
74631;BME280;63138;55.082;38.804;2022-11-20T04:26:07;100009.97;;;-3.11;92.43
74631;BME280;63138;55.082;38.804;2022-11-20T04:28:33;100014.38;;;-3.10;92.34
74631;BME280;63138;55.082;38.804;2022-11-20T04:31:23;100017.09;;;-3.11;92.30
74631;BME280;63138;55.082;38.804;2022-11-20T04:33:50;100019.84;;;-3.13;92.19
74631;BME280;63138;55.082;38.804;2022-11-20T04:36:18;100022.66;;;-3.16;91.90
74631;BME280;63138;55.082;38.804;2022-11-20T04:38:45;100030.31;;;-3.10;91.97
74631;BME280;63138;55.082;38.804;2022-11-20T04:41:19;100024.31;;;-3.13;92.06
74631;BME280;63138;55.082;38.804;2022-11-20T04:43:49;100024.31;;;-3.13;91.74
74631;BME280;63138;55.082;38.804;2022-11-20T04:46:16;100024.41;;;-3.15;91.76
74631;BME280;63138;55.082;38.804;2022-11-20T04:48:42;100027.06;;;-3.15;91.91
74631;BME280;63138;55.082;38.804;2022-11-20T04:51:08;100026.09;;;-3.14;92.05
74631;BME280;63138;55.082;38.804;2022-11-20T04:53:34;100029.78;;;-3.16;91.64
74631;BME280;63138;55.082;38.804;2022-11-20T04:56:01;100044.69;;;-3.14;92.13
74631;BME280;63138;55.082;38.804;2022-11-20T04:58:27;100048.31;;;-3.15;91.89
74631;BME280;63138;55.082;38.804;2022-11-20T05:00:52;100047.34;;;-3.14;91.56
74631;BME280;63138;55.082;38.804;2022-11-20T05:03:18;100055.31;;;-3.14;91.62
74631;BME280;63138;55.082;38.804;2022-11-20T05:05:44;100058.72;;;-3.12;91.38
74631;BME280;63138;55.082;38.804;2022-11-20T05:08:10;100067.50;;;-3.10;91.75
74631;BME280;63138;55.082;38.804;2022-11-20T05:10:36;100071.78;;;-3.07;91.65
74631;BME280;63138;55.082;38.804;2022-11-20T05:13:02;100071.84;;;-3.09;90.81
74631;BME280;63138;55.082;38.804;2022-11-20T05:15:27;100076.31;;;-3.09;91.16
74631;BME280;63138;55.082;38.804;2022-11-20T05:18:00;100085.81;;;-3.05;91.55
74631;BME280;63138;55.082;38.804;2022-11-20T05:20:26;100085.13;;;-3.09;91.37
74631;BME280;63138;55.082;38.804;2022-11-20T05:22:52;100103.56;;;-3.05;91.12
74631;BME280;63138;55.082;38.804;2022-11-20T05:25:20;100102.03;;;-3.10;90.84
74631;BME280;63138;55.082;38.804;2022-11-20T05:27:45;100099.38;;;-3.10;91.08
74631;BME280;63138;55.082;38.804;2022-11-20T05:30:12;100110.00;;;-3.10;90.66
74631;BME280;63138;55.082;38.804;2022-11-20T05:32:38;100099.53;;;-3.13;90.83
74631;BME280;63138;55.082;38.804;2022-11-20T05:35:04;100086.94;;;-3.09;90.58
74631;BME280;63138;55.082;38.804;2022-11-20T05:37:29;100108.13;;;-3.08;90.36
74631;BME280;63138;55.082;38.804;2022-11-20T05:39:55;100113.25;;;-3.04;90.58
74631;BME280;63138;55.082;38.804;2022-11-20T05:42:21;100107.75;;;-3.01;90.60
74631;BME280;63138;55.082;38.804;2022-11-20T05:44:57;100117.47;;;-3.00;90.37
74631;BME280;63138;55.082;38.804;2022-11-20T05:47:23;100122.59;;;-2.97;90.15
74631;BME280;63138;55.082;38.804;2022-11-20T05:49:49;100124.31;;;-2.96;89.99
74631;BME280;63138;55.082;38.804;2022-11-20T05:52:15;100123.53;;;-2.98;90.19
74631;BME280;63138;55.082;38.804;2022-11-20T05:54:41;100128.00;;;-2.99;89.82
74631;BME280;63138;55.082;38.804;2022-11-20T05:57:06;100133.56;;;-3.03;90.05
74631;BME280;63138;55.082;38.804;2022-11-20T05:59:32;100137.59;;;-2.96;89.64
74631;BME280;63138;55.082;38.804;2022-11-20T06:01:58;100121.66;;;-2.96;90.04
74631;BME280;63138;55.082;38.804;2022-11-20T06:04:24;100135.53;;;-2.91;89.64
74631;BME280;63138;55.082;38.804;2022-11-20T06:10:06;100149.53;;;-2.88;89.44
74631;BME280;63138;55.082;38.804;2022-11-20T06:12:32;100150.63;;;-2.92;89.40
74631;BME280;63138;55.082;38.804;2022-11-20T06:14:58;100159.31;;;-2.88;89.48
74631;BME280;63138;55.082;38.804;2022-11-20T06:17:25;100164.78;;;-2.91;89.04
74631;BME280;63138;55.082;38.804;2022-11-20T06:19:50;100167.97;;;-2.84;88.95
74631;BME280;63138;55.082;38.804;2022-11-20T06:22:16;100170.50;;;-2.83;88.61
74631;BME280;63138;55.082;38.804;2022-11-20T06:24:42;100176.69;;;-2.82;88.82
74631;BME280;63138;55.082;38.804;2022-11-20T06:27:07;100172.59;;;-2.88;88.67
74631;BME280;63138;55.082;38.804;2022-11-20T06:29:33;100181.50;;;-2.89;88.88
74631;BME280;63138;55.082;38.804;2022-11-20T06:32:00;100181.94;;;-2.81;89.03
74631;BME280;63138;55.082;38.804;2022-11-20T06:34:26;100195.91;;;-2.77;88.94
74631;BME280;63138;55.082;38.804;2022-11-20T06:36:52;100193.81;;;-2.72;88.64
74631;BME280;63138;55.082;38.804;2022-11-20T06:39:17;100192.81;;;-2.70;88.61
74631;BME280;63138;55.082;38.804;2022-11-20T06:41:43;100178.69;;;-2.70;88.27
74631;BME280;63138;55.082;38.804;2022-11-20T06:44:09;100182.03;;;-2.66;88.16
74631;BME280;63138;55.082;38.804;2022-11-20T06:46:35;100186.47;;;-2.67;88.31
74631;BME280;63138;55.082;38.804;2022-11-20T06:49:00;100180.47;;;-2.71;88.18
74631;BME280;63138;55.082;38.804;2022-11-20T06:51:26;100164.19;;;-2.64;88.41
74631;BME280;63138;55.082;38.804;2022-11-20T06:53:52;100162.00;;;-2.58;87.68
74631;BME280;63138;55.082;38.804;2022-11-20T06:56:18;100167.31;;;-2.58;87.66
74631;BME280;63138;55.082;38.804;2022-11-20T06:58:44;100170.50;;;-2.51;87.57
74631;BME280;63138;55.082;38.804;2022-11-20T07:01:12;100172.03;;;-2.47;87.76
74631;BME280;63138;55.082;38.804;2022-11-20T07:03:38;100168.44;;;-2.46;87.33
74631;BME280;63138;55.082;38.804;2022-11-20T07:06:05;100171.72;;;-2.57;86.70
74631;BME280;63138;55.082;38.804;2022-11-20T07:08:31;100163.44;;;-2.52;87.04
74631;BME280;63138;55.082;38.804;2022-11-20T07:10:59;100173.00;;;-2.48;86.89
74631;BME280;63138;55.082;38.804;2022-11-20T07:13:26;100166.69;;;-2.47;86.46
74631;BME280;63138;55.082;38.804;2022-11-20T07:15:52;100180.19;;;-2.50;86.60
74631;BME280;63138;55.082;38.804;2022-11-20T07:18:17;100176.41;;;-2.46;86.82
74631;BME280;63138;55.082;38.804;2022-11-20T07:20:43;100188.66;;;-2.27;86.07
74631;BME280;63138;55.082;38.804;2022-11-20T07:23:09;100181.94;;;-2.19;86.02
74631;BME280;63138;55.082;38.804;2022-11-20T07:25:34;100187.75;;;-2.12;85.64
74631;BME280;63138;55.082;38.804;2022-11-20T07:28:01;100192.81;;;-2.23;84.96
74631;BME280;63138;55.082;38.804;2022-11-20T07:30:30;100210.84;;;-2.13;84.88
74631;BME280;63138;55.082;38.804;2022-11-20T07:32:56;100215.13;;;-2.10;85.20
74631;BME280;63138;55.082;38.804;2022-11-20T07:35:25;100210.41;;;-2.05;85.12
74631;BME280;63138;55.082;38.804;2022-11-20T07:37:51;100219.16;;;-2.03;84.69
74631;BME280;63138;55.082;38.804;2022-11-20T07:40:17;100232.84;;;-1.95;85.17
74631;BME280;63138;55.082;38.804;2022-11-20T07:42:50;100223.94;;;-1.94;84.89
74631;BME280;63138;55.082;38.804;2022-11-20T07:45:20;100220.72;;;-1.84;84.39
74631;BME280;63138;55.082;38.804;2022-11-20T07:47:46;100221.31;;;-1.79;84.50
74631;BME280;63138;55.082;38.804;2022-11-20T07:50:12;100224.56;;;-1.74;83.90
74631;BME280;63138;55.082;38.804;2022-11-20T07:52:39;100219.41;;;-1.77;83.82
74631;BME280;63138;55.082;38.804;2022-11-20T07:55:05;100207.06;;;-1.78;83.99
74631;BME280;63138;55.082;38.804;2022-11-20T07:57:31;100203.34;;;-1.76;83.44
74631;BME280;63138;55.082;38.804;2022-11-20T07:59:57;100206.88;;;-1.75;83.73
74631;BME280;63138;55.082;38.804;2022-11-20T08:02:23;100209.50;;;-1.89;83.93
74631;BME280;63138;55.082;38.804;2022-11-20T08:04:49;100213.88;;;-1.88;83.81
74631;BME280;63138;55.082;38.804;2022-11-20T08:07:15;100216.16;;;-1.82;83.98
74631;BME280;63138;55.082;38.804;2022-11-20T08:09:40;100227.56;;;-1.80;83.60
74631;BME280;63138;55.082;38.804;2022-11-20T08:12:06;100235.56;;;-1.80;84.14
74631;BME280;63138;55.082;38.804;2022-11-20T08:14:51;100233.41;;;-1.74;83.82
74631;BME280;63138;55.082;38.804;2022-11-20T08:17:16;100239.31;;;-1.68;83.22
74631;BME280;63138;55.082;38.804;2022-11-20T08:19:42;100238.38;;;-1.67;83.24
74631;BME280;63138;55.082;38.804;2022-11-20T08:22:10;100240.66;;;-1.61;83.08
74631;BME280;63138;55.082;38.804;2022-11-20T08:24:36;100242.41;;;-1.60;82.67
74631;BME280;63138;55.082;38.804;2022-11-20T08:27:01;100242.19;;;-1.57;83.01
74631;BME280;63138;55.082;38.804;2022-11-20T08:29:27;100247.16;;;-1.51;82.66
74631;BME280;63138;55.082;38.804;2022-11-20T08:31:56;100235.63;;;-1.51;82.96
74631;BME280;63138;55.082;38.804;2022-11-20T08:34:22;100237.06;;;-1.60;82.95
74631;BME280;63138;55.082;38.804;2022-11-20T08:36:47;100254.53;;;-1.70;83.22
74631;BME280;63138;55.082;38.804;2022-11-20T08:39:14;100256.59;;;-1.76;83.52
74631;BME280;63138;55.082;38.804;2022-11-20T08:41:40;100251.97;;;-1.72;83.63
74631;BME280;63138;55.082;38.804;2022-11-20T08:44:07;100248.44;;;-1.73;83.42
74631;BME280;63138;55.082;38.804;2022-11-20T08:46:37;100257.97;;;-1.68;83.33
74631;BME280;63138;55.082;38.804;2022-11-20T08:49:05;100271.69;;;-1.60;82.72
74631;BME280;63138;55.082;38.804;2022-11-20T08:51:31;100266.66;;;-1.50;83.00
74631;BME280;63138;55.082;38.804;2022-11-20T08:53:59;100269.31;;;-1.50;82.87
74631;BME280;63138;55.082;38.804;2022-11-20T08:56:29;100274.47;;;-1.47;82.64
74631;BME280;63138;55.082;38.804;2022-11-20T08:58:55;100280.28;;;-1.41;82.67
74631;BME280;63138;55.082;38.804;2022-11-20T09:01:28;100286.16;;;-1.50;82.63
74631;BME280;63138;55.082;38.804;2022-11-20T09:04:03;100292.38;;;-1.49;82.83
74631;BME280;63138;55.082;38.804;2022-11-20T09:06:32;100294.06;;;-1.48;82.95
74631;BME280;63138;55.082;38.804;2022-11-20T09:09:10;100291.47;;;-1.50;82.99
74631;BME280;63138;55.082;38.804;2022-11-20T09:11:37;100284.47;;;-1.51;83.00
74631;BME280;63138;55.082;38.804;2022-11-20T09:14:20;100295.78;;;-1.47;83.10
74631;BME280;63138;55.082;38.804;2022-11-20T09:17:27;100304.63;;;-1.47;83.58
74631;BME280;63138;55.082;38.804;2022-11-20T09:19:54;100290.00;;;-1.40;83.41
74631;BME280;63138;55.082;38.804;2022-11-20T09:22:20;100281.16;;;-1.40;83.19
74631;BME280;63138;55.082;38.804;2022-11-20T09:24:46;100292.28;;;-1.33;82.71
74631;BME280;63138;55.082;38.804;2022-11-20T09:27:11;100294.75;;;-1.30;82.59
74631;BME280;63138;55.082;38.804;2022-11-20T09:29:37;100307.31;;;-1.32;82.34
74631;BME280;63138;55.082;38.804;2022-11-20T09:32:03;100317.91;;;-1.31;82.96
74631;BME280;63138;55.082;38.804;2022-11-20T09:34:29;100313.34;;;-1.29;82.80
74631;BME280;63138;55.082;38.804;2022-11-20T09:36:55;100320.09;;;-1.23;83.30
74631;BME280;63138;55.082;38.804;2022-11-20T09:39:21;100319.41;;;-1.27;82.72
74631;BME280;63138;55.082;38.804;2022-11-20T09:47:56;100337.47;;;-1.02;82.26
74631;BME280;63138;55.082;38.804;2022-11-20T09:56:30;100348.69;;;-1.11;82.88
74631;BME280;63138;55.082;38.804;2022-11-20T09:58:59;100350.84;;;-1.18;83.30
74631;BME280;63138;55.082;38.804;2022-11-20T10:01:34;100355.41;;;-1.20;83.48
74631;BME280;63138;55.082;38.804;2022-11-20T10:04:04;100354.34;;;-1.17;83.12
74631;BME280;63138;55.082;38.804;2022-11-20T10:06:44;100348.28;;;-1.19;83.52
74631;BME280;63138;55.082;38.804;2022-11-20T10:09:16;100356.59;;;-1.09;83.08
74631;BME280;63138;55.082;38.804;2022-11-20T10:20:09;100360.19;;;-1.10;83.64
74631;BME280;63138;55.082;38.804;2022-11-20T10:26:03;100356.06;;;-1.30;84.29
74631;BME280;63138;55.082;38.804;2022-11-20T10:31:17;100365.44;;;-1.39;85.09
74631;BME280;63138;55.082;38.804;2022-11-20T10:33:49;100363.47;;;-1.36;84.92
74631;BME280;63138;55.082;38.804;2022-11-20T10:36:34;100373.63;;;-1.42;85.67
74631;BME280;63138;55.082;38.804;2022-11-20T10:39:20;100365.06;;;-1.47;85.34
74631;BME280;63138;55.082;38.804;2022-11-20T10:41:51;100362.97;;;-1.42;85.33
74631;BME280;63138;55.082;38.804;2022-11-20T10:44:26;100364.00;;;-1.45;85.53
74631;BME280;63138;55.082;38.804;2022-11-20T10:47:18;100373.34;;;-1.38;85.48
74631;BME280;63138;55.082;38.804;2022-11-20T10:49:55;100373.19;;;-1.35;85.72
74631;BME280;63138;55.082;38.804;2022-11-20T11:00:17;100384.63;;;-1.48;86.21
74631;BME280;63138;55.082;38.804;2022-11-20T11:02:53;100389.72;;;-1.60;86.46
74631;BME280;63138;55.082;38.804;2022-11-20T11:08:34;100390.56;;;-1.59;86.69
74631;BME280;63138;55.082;38.804;2022-11-20T11:14:06;100382.50;;;-1.58;86.63
74631;BME280;63138;55.082;38.804;2022-11-20T11:16:33;100373.06;;;-1.63;86.55
74631;BME280;63138;55.082;38.804;2022-11-20T11:19:10;100379.94;;;-1.59;86.37
74631;BME280;63138;55.082;38.804;2022-11-20T11:21:37;100393.09;;;-1.72;86.86
74631;BME280;63138;55.082;38.804;2022-11-20T11:24:25;100394.03;;;-1.73;86.69
74631;BME280;63138;55.082;38.804;2022-11-20T11:27:12;100392.03;;;-1.69;86.79
74631;BME280;63138;55.082;38.804;2022-11-20T11:29:38;100398.84;;;-1.80;86.39
74631;BME280;63138;55.082;38.804;2022-11-20T11:32:20;100402.72;;;-1.85;86.81
74631;BME280;63138;55.082;38.804;2022-11-20T11:35:11;100396.97;;;-1.94;87.33
74631;BME280;63138;55.082;38.804;2022-11-20T11:37:45;100400.91;;;-1.85;87.37
74631;BME280;63138;55.082;38.804;2022-11-20T11:40:13;100394.13;;;-1.90;87.19
74631;BME280;63138;55.082;38.804;2022-11-20T11:42:43;100398.69;;;-1.93;87.19
74631;BME280;63138;55.082;38.804;2022-11-20T11:45:16;100403.66;;;-2.02;87.62
74631;BME280;63138;55.082;38.804;2022-11-20T11:50:15;100398.75;;;-2.10;88.09
74631;BME280;63138;55.082;38.804;2022-11-20T11:53:12;100394.97;;;-2.06;88.25
74631;BME280;63138;55.082;38.804;2022-11-20T11:55:58;100394.91;;;-2.04;88.29
74631;BME280;63138;55.082;38.804;2022-11-20T11:58:40;100384.50;;;-2.09;88.18
74631;BME280;63138;55.082;38.804;2022-11-20T12:01:32;100389.81;;;-2.09;88.24
74631;BME280;63138;55.082;38.804;2022-11-20T12:04:22;100385.53;;;-2.12;88.36
74631;BME280;63138;55.082;38.804;2022-11-20T12:06:56;100400.38;;;-2.07;88.16
74631;BME280;63138;55.082;38.804;2022-11-20T12:09:32;100410.69;;;-2.17;88.72
74631;BME280;63138;55.082;38.804;2022-11-20T12:12:08;100413.34;;;-2.17;88.99
74631;BME280;63138;55.082;38.804;2022-11-20T12:14:40;100410.91;;;-2.22;88.97
74631;BME280;63138;55.082;38.804;2022-11-20T12:17:13;100413.66;;;-2.23;88.81
74631;BME280;63138;55.082;38.804;2022-11-20T12:19:40;100410.84;;;-2.20;89.22
74631;BME280;63138;55.082;38.804;2022-11-20T12:24:47;100411.81;;;-2.21;88.83
74631;BME280;63138;55.082;38.804;2022-11-20T12:27:27;100425.00;;;-2.20;89.14
74631;BME280;63138;55.082;38.804;2022-11-20T12:38:23;100418.66;;;-2.17;88.37
74631;BME280;63138;55.082;38.804;2022-11-20T12:41:09;100416.94;;;-2.18;88.06
74631;BME280;63138;55.082;38.804;2022-11-20T12:43:46;100418.81;;;-2.20;87.18
74631;BME280;63138;55.082;38.804;2022-11-20T12:46:46;100426.03;;;-2.22;87.15
74631;BME280;63138;55.082;38.804;2022-11-20T12:52:31;100425.09;;;-2.21;86.64
74631;BME280;63138;55.082;38.804;2022-11-20T13:00:20;100418.22;;;-2.25;87.34
74631;BME280;63138;55.082;38.804;2022-11-20T13:08:40;100433.47;;;-2.29;87.13
74631;BME280;63138;55.082;38.804;2022-11-20T13:16:49;100458.31;;;-2.28;86.54
74631;BME280;63138;55.082;38.804;2022-11-20T13:19:17;100453.00;;;-2.28;86.44
74631;BME280;63138;55.082;38.804;2022-11-20T13:21:45;100450.22;;;-2.27;86.53
74631;BME280;63138;55.082;38.804;2022-11-20T13:26:45;100445.78;;;-2.26;86.34
74631;BME280;63138;55.082;38.804;2022-11-20T13:29:17;100453.75;;;-2.26;86.10
74631;BME280;63138;55.082;38.804;2022-11-20T13:31:45;100461.75;;;-2.26;85.38
74631;BME280;63138;55.082;38.804;2022-11-20T13:34:32;100463.63;;;-2.28;85.49
74631;BME280;63138;55.082;38.804;2022-11-20T13:36:59;100461.97;;;-2.31;84.87
74631;BME280;63138;55.082;38.804;2022-11-20T13:39:29;100465.66;;;-2.34;84.51
74631;BME280;63138;55.082;38.804;2022-11-20T13:41:58;100463.09;;;-2.35;84.30
74631;BME280;63138;55.082;38.804;2022-11-20T13:46:55;100469.25;;;-2.35;84.90
74631;BME280;63138;55.082;38.804;2022-11-20T13:49:37;100462.25;;;-2.36;85.01
74631;BME280;63138;55.082;38.804;2022-11-20T13:55:29;100464.19;;;-2.39;84.67
74631;BME280;63138;55.082;38.804;2022-11-20T14:00:26;100470.38;;;-2.39;84.56
74631;BME280;63138;55.082;38.804;2022-11-20T14:03:21;100473.03;;;-2.39;84.31
74631;BME280;63138;55.082;38.804;2022-11-20T14:05:52;100472.97;;;-2.37;84.48
74631;BME280;63138;55.082;38.804;2022-11-20T14:08:28;100475.84;;;-2.42;84.23
74631;BME280;63138;55.082;38.804;2022-11-20T14:11:24;100480.31;;;-2.42;84.95
74631;BME280;63138;55.082;38.804;2022-11-20T14:14:04;100481.31;;;-2.45;84.84
74631;BME280;63138;55.082;38.804;2022-11-20T14:16:39;100492.75;;;-2.43;84.89
74631;BME280;63138;55.082;38.804;2022-11-20T14:21:48;100511.38;;;-2.43;84.91
74631;BME280;63138;55.082;38.804;2022-11-20T14:24:18;100510.56;;;-2.45;84.98
74631;BME280;63138;55.082;38.804;2022-11-20T14:26:46;100504.56;;;-2.48;85.15
74631;BME280;63138;55.082;38.804;2022-11-20T14:29:23;100510.75;;;-2.48;85.32
74631;BME280;63138;55.082;38.804;2022-11-20T14:31:53;100509.97;;;-2.50;84.68
74631;BME280;63138;55.082;38.804;2022-11-20T14:34:31;100500.41;;;-2.54;85.46
74631;BME280;63138;55.082;38.804;2022-11-20T14:37:04;100504.81;;;-2.53;85.57